sensor_id;sensor_type;location;lat;lon;timestamp;pressure;altitude;pressure_sealevel;temperature;humidity
5595;BME280;1003;48.002;7.788;2023-03-26T00:01:20;98782.16;;;9.39;100.00
5595;BME280;1003;48.002;7.788;2023-03-26T00:03:49;98783.78;;;9.41;100.00
5595;BME280;1003;48.002;7.788;2023-03-26T00:06:21;98781.22;;;9.48;100.00
5595;BME280;1003;48.002;7.788;2023-03-26T00:08:51;98780.06;;;9.71;100.00
5595;BME280;1003;48.002;7.788;2023-03-26T00:11:21;98776.81;;;9.65;100.00
5595;BME280;1003;48.002;7.788;2023-03-26T00:13:49;98769.19;;;9.74;100.00
5595;BME280;1003;48.002;7.788;2023-03-26T00:16:19;98765.97;;;9.64;100.00
5595;BME280;1003;48.002;7.788;2023-03-26T00:18:46;98766.00;;;9.60;100.00
5595;BME280;1003;48.002;7.788;2023-03-26T00:21:18;98769.38;;;9.59;100.00
5595;BME280;1003;48.002;7.788;2023-03-26T00:23:47;98756.94;;;9.50;100.00
5595;BME280;1003;48.002;7.788;2023-03-26T00:26:15;98771.13;;;9.54;100.00
5595;BME280;1003;48.002;7.788;2023-03-26T00:28:43;98754.31;;;9.60;100.00
5595;BME280;1003;48.002;7.788;2023-03-26T00:31:13;98748.44;;;9.61;100.00
5595;BME280;1003;48.002;7.788;2023-03-26T00:33:41;98745.00;;;9.67;100.00
5595;BME280;1003;48.002;7.788;2023-03-26T00:36:13;98736.66;;;9.66;100.00
5595;BME280;1003;48.002;7.788;2023-03-26T00:38:43;98739.06;;;9.74;100.00
5595;BME280;1003;48.002;7.788;2023-03-26T00:41:16;98740.75;;;9.72;100.00
5595;BME280;1003;48.002;7.788;2023-03-26T00:43:49;98736.56;;;9.72;100.00
5595;BME280;1003;48.002;7.788;2023-03-26T00:46:17;98729.03;;;9.72;100.00
5595;BME280;1003;48.002;7.788;2023-03-26T00:48:45;98723.91;;;9.79;100.00
5595;BME280;1003;48.002;7.788;2023-03-26T00:51:14;98720.44;;;9.90;100.00
5595;BME280;1003;48.002;7.788;2023-03-26T00:53:43;98713.88;;;9.80;100.00
5595;BME280;1003;48.002;7.788;2023-03-26T00:56:11;98709.78;;;9.73;100.00
5595;BME280;1003;48.002;7.788;2023-03-26T00:58:39;98713.97;;;9.74;100.00
5595;BME280;1003;48.002;7.788;2023-03-26T01:01:10;98713.13;;;9.73;100.00
5595;BME280;1003;48.002;7.788;2023-03-26T01:03:41;98698.88;;;9.76;100.00
5595;BME280;1003;48.002;7.788;2023-03-26T01:06:11;98698.88;;;9.76;100.00
5595;BME280;1003;48.002;7.788;2023-03-26T01:08:43;98682.91;;;9.81;100.00
5595;BME280;1003;48.002;7.788;2023-03-26T01:11:17;98682.88;;;9.83;100.00
5595;BME280;1003;48.002;7.788;2023-03-26T01:13:50;98671.81;;;9.94;100.00
5595;BME280;1003;48.002;7.788;2023-03-26T01:16:25;98661.81;;;9.93;100.00
5595;BME280;1003;48.002;7.788;2023-03-26T01:18:54;98659.28;;;9.93;100.00
5595;BME280;1003;48.002;7.788;2023-03-26T01:21:27;98648.56;;;9.85;100.00
5595;BME280;1003;48.002;7.788;2023-03-26T01:23:59;98633.50;;;9.85;100.00
5595;BME280;1003;48.002;7.788;2023-03-26T01:26:50;98619.06;;;9.97;100.00
5595;BME280;1003;48.002;7.788;2023-03-26T01:29:29;98601.53;;;9.94;100.00
5595;BME280;1003;48.002;7.788;2023-03-26T01:32:12;98588.25;;;9.88;100.00
5595;BME280;1003;48.002;7.788;2023-03-26T01:35:03;98579.69;;;10.01;100.00
5595;BME280;1003;48.002;7.788;2023-03-26T01:37:43;98568.84;;;9.97;100.00
5595;BME280;1003;48.002;7.788;2023-03-26T01:40:22;98558.81;;;9.97;100.00
5595;BME280;1003;48.002;7.788;2023-03-26T01:42:58;98547.06;;;9.99;100.00
5595;BME280;1003;48.002;7.788;2023-03-26T01:45:33;98536.44;;;9.85;100.00
5595;BME280;1003;48.002;7.788;2023-03-26T01:48:02;98523.06;;;9.85;100.00
5595;BME280;1003;48.002;7.788;2023-03-26T01:50:30;98522.19;;;9.87;100.00
5595;BME280;1003;48.002;7.788;2023-03-26T01:52:57;98518.88;;;9.85;100.00
5595;BME280;1003;48.002;7.788;2023-03-26T01:55:36;98520.69;;;9.77;100.00
5595;BME280;1003;48.002;7.788;2023-03-26T01:58:17;98504.00;;;9.75;100.00
5595;BME280;1003;48.002;7.788;2023-03-26T02:00:54;98498.94;;;9.78;100.00
5595;BME280;1003;48.002;7.788;2023-03-26T02:03:31;98498.94;;;9.78;100.00
5595;BME280;1003;48.002;7.788;2023-03-26T02:06:09;98490.59;;;9.76;100.00
5595;BME280;1003;48.002;7.788;2023-03-26T02:08:46;98486.41;;;9.76;100.00
5595;BME280;1003;48.002;7.788;2023-03-26T02:11:19;98470.69;;;9.66;100.00
5595;BME280;1003;48.002;7.788;2023-03-26T02:13:46;98465.78;;;9.60;100.00
5595;BME280;1003;48.002;7.788;2023-03-26T02:16:16;98465.81;;;9.59;100.00
5595;BME280;1003;48.002;7.788;2023-03-26T02:18:44;98461.63;;;9.58;100.00
5595;BME280;1003;48.002;7.788;2023-03-26T02:21:15;98463.31;;;9.57;100.00
5595;BME280;1003;48.002;7.788;2023-03-26T02:23:47;98458.41;;;9.51;100.00
5595;BME280;1003;48.002;7.788;2023-03-26T02:26:18;98450.09;;;9.49;100.00
5595;BME280;1003;48.002;7.788;2023-03-26T02:28:45;98428.38;;;9.48;100.00
5595;BME280;1003;48.002;7.788;2023-03-26T02:31:13;98427.41;;;9.55;100.00
5595;BME280;1003;48.002;7.788;2023-03-26T02:33:42;98428.19;;;9.57;100.00
5595;BME280;1003;48.002;7.788;2023-03-26T02:36:12;98419.19;;;9.49;100.00
5595;BME280;1003;48.002;7.788;2023-03-26T02:38:40;98418.31;;;9.50;100.00
5595;BME280;1003;48.002;7.788;2023-03-26T02:41:07;98417.22;;;9.63;100.00
5595;BME280;1003;48.002;7.788;2023-03-26T02:43:36;98408.75;;;9.68;100.00
5595;BME280;1003;48.002;7.788;2023-03-26T02:46:03;98398.00;;;9.63;100.00
5595;BME280;1003;48.002;7.788;2023-03-26T02:48:30;98391.41;;;9.58;100.00
5595;BME280;1003;48.002;7.788;2023-03-26T02:50:59;98391.38;;;9.59;100.00
5595;BME280;1003;48.002;7.788;2023-03-26T02:53:26;98392.19;;;9.61;100.00
5595;BME280;1003;48.002;7.788;2023-03-26T02:55:55;98380.53;;;9.57;100.00
5595;BME280;1003;48.002;7.788;2023-03-26T02:58:22;98375.53;;;9.57;100.00
5595;BME280;1003;48.002;7.788;2023-03-26T03:00:52;98374.78;;;9.52;100.00
5595;BME280;1003;48.002;7.788;2023-03-26T03:03:20;98372.38;;;9.48;100.00
5595;BME280;1003;48.002;7.788;2023-03-26T03:05:49;98369.06;;;9.47;100.00
5595;BME280;1003;48.002;7.788;2023-03-26T03:08:16;98356.56;;;9.44;100.00
5595;BME280;1003;48.002;7.788;2023-03-26T03:10:54;98352.41;;;9.41;100.00
5595;BME280;1003;48.002;7.788;2023-03-26T03:13:22;98350.69;;;9.45;100.00
5595;BME280;1003;48.002;7.788;2023-03-26T03:15:49;98342.81;;;9.63;100.00
5595;BME280;1003;48.002;7.788;2023-03-26T03:18:18;98322.41;;;9.79;100.00
5595;BME280;1003;48.002;7.788;2023-03-26T03:20:45;98302.53;;;9.69;100.00
5595;BME280;1003;48.002;7.788;2023-03-26T03:23:14;98289.28;;;9.64;100.00
5595;BME280;1003;48.002;7.788;2023-03-26T03:25:41;98290.00;;;9.69;100.00
5595;BME280;1003;48.002;7.788;2023-03-26T03:28:09;98287.50;;;9.69;100.00
5595;BME280;1003;48.002;7.788;2023-03-26T03:30:36;98289.31;;;9.61;100.00
5595;BME280;1003;48.002;7.788;2023-03-26T03:33:03;98277.56;;;9.65;100.00
5595;BME280;1003;48.002;7.788;2023-03-26T03:35:32;98280.06;;;9.65;100.00
5595;BME280;1003;48.002;7.788;2023-03-26T03:37:59;98287.63;;;9.62;100.00
5595;BME280;1003;48.002;7.788;2023-03-26T03:40:26;98285.22;;;9.59;100.00
5595;BME280;1003;48.002;7.788;2023-03-26T03:42:54;98278.50;;;9.58;100.00
5595;BME280;1003;48.002;7.788;2023-03-26T03:45:21;98279.41;;;9.55;100.00
5595;BME280;1003;48.002;7.788;2023-03-26T03:47:50;98274.44;;;9.52;100.00
5595;BME280;1003;48.002;7.788;2023-03-26T03:50:17;98281.16;;;9.52;100.00
5595;BME280;1003;48.002;7.788;2023-03-26T03:52:46;98278.50;;;9.58;100.00
5595;BME280;1003;48.002;7.788;2023-03-26T03:55:13;98274.22;;;9.63;100.00
5595;BME280;1003;48.002;7.788;2023-03-26T03:57:40;98270.75;;;9.68;100.00
5595;BME280;1003;48.002;7.788;2023-03-26T04:00:09;98259.94;;;9.66;100.00
5595;BME280;1003;48.002;7.788;2023-03-26T04:02:37;98264.03;;;9.70;100.00
5595;BME280;1003;48.002;7.788;2023-03-26T04:05:08;98264.00;;;9.72;100.00
5595;BME280;1003;48.002;7.788;2023-03-26T04:07:36;98248.94;;;9.72;100.00
5595;BME280;1003;48.002;7.788;2023-03-26T04:10:07;98240.66;;;9.68;100.00
5595;BME280;1003;48.002;7.788;2023-03-26T04:12:35;98226.56;;;9.63;100.00
5595;BME280;1003;48.002;7.788;2023-03-26T04:15:02;98222.41;;;9.62;100.00
5595;BME280;1003;48.002;7.788;2023-03-26T04:17:29;98230.03;;;9.59;100.00
5595;BME280;1003;48.002;7.788;2023-03-26T04:19:56;98227.50;;;9.59;100.00
5595;BME280;1003;48.002;7.788;2023-03-26T04:22:31;98221.63;;;9.60;100.00
5595;BME280;1003;48.002;7.788;2023-03-26T04:24:59;98220.75;;;9.61;100.00
5595;BME280;1003;48.002;7.788;2023-03-26T04:27:30;98212.47;;;9.59;100.00
5595;BME280;1003;48.002;7.788;2023-03-26T04:30:02;98199.59;;;9.74;100.00
5595;BME280;1003;48.002;7.788;2023-03-26T04:32:30;98204.63;;;9.72;100.00
5595;BME280;1003;48.002;7.788;2023-03-26T04:35:00;98195.44;;;9.71;100.00
5595;BME280;1003;48.002;7.788;2023-03-26T04:37:32;98187.78;;;9.78;100.00
5595;BME280;1003;48.002;7.788;2023-03-26T04:40:02;98185.16;;;9.82;100.00
5595;BME280;1003;48.002;7.788;2023-03-26T04:42:36;98185.94;;;9.86;100.00
5595;BME280;1003;48.002;7.788;2023-03-26T04:45:07;98177.19;;;10.00;100.00
5595;BME280;1003;48.002;7.788;2023-03-26T04:47:35;98166.09;;;10.09;100.00
5595;BME280;1003;48.002;7.788;2023-03-26T04:50:04;98165.78;;;10.24;100.00
5595;BME280;1003;48.002;7.788;2023-03-26T04:52:32;98165.44;;;10.37;100.00
5595;BME280;1003;48.002;7.788;2023-03-26T04:55:00;98161.22;;;10.39;100.00
5595;BME280;1003;48.002;7.788;2023-03-26T04:57:33;98156.97;;;10.41;100.00
5595;BME280;1003;48.002;7.788;2023-03-26T05:00:03;98147.47;;;10.52;100.00
5595;BME280;1003;48.002;7.788;2023-03-26T05:02:40;98135.78;;;10.51;100.00
5595;BME280;1003;48.002;7.788;2023-03-26T05:05:08;98138.34;;;10.48;100.00
5595;BME280;1003;48.002;7.788;2023-03-26T05:07:35;98140.84;;;10.49;100.00
5595;BME280;1003;48.002;7.788;2023-03-26T05:10:04;98135.81;;;10.49;100.00
5595;BME280;1003;48.002;7.788;2023-03-26T05:12:31;98132.63;;;10.43;100.00
5595;BME280;1003;48.002;7.788;2023-03-26T05:15:00;98132.69;;;10.41;100.00
5595;BME280;1003;48.002;7.788;2023-03-26T05:17:27;98140.16;;;10.43;100.00
5595;BME280;1003;48.002;7.788;2023-03-26T05:19:55;98152.00;;;10.39;100.00
5595;BME280;1003;48.002;7.788;2023-03-26T05:22:23;98144.47;;;10.39;100.00
5595;BME280;1003;48.002;7.788;2023-03-26T05:24:50;98153.00;;;10.32;100.00
5595;BME280;1003;48.002;7.788;2023-03-26T05:27:17;98150.22;;;10.43;100.00
5595;BME280;1003;48.002;7.788;2023-03-26T05:29:45;98152.03;;;10.38;100.00
5595;BME280;1003;48.002;7.788;2023-03-26T05:32:13;98153.00;;;10.32;100.00
5595;BME280;1003;48.002;7.788;2023-03-26T05:34:41;98149.44;;;10.41;100.00
5595;BME280;1003;48.002;7.788;2023-03-26T05:37:07;98152.84;;;10.38;100.00
5595;BME280;1003;48.002;7.788;2023-03-26T05:39:35;98143.78;;;10.33;100.00
5595;BME280;1003;48.002;7.788;2023-03-26T05:42:02;98134.50;;;10.36;100.00
5595;BME280;1003;48.002;7.788;2023-03-26T05:44:29;98125.25;;;10.37;100.00
5595;BME280;1003;48.002;7.788;2023-03-26T05:46:56;98120.19;;;10.38;100.00
5595;BME280;1003;48.002;7.788;2023-03-26T05:49:24;98122.97;;;10.28;100.00
5595;BME280;1003;48.002;7.788;2023-03-26T05:51:51;98110.06;;;10.41;100.00
5595;BME280;1003;48.002;7.788;2023-03-26T05:54:18;98128.09;;;10.24;100.00
5595;BME280;1003;48.002;7.788;2023-03-26T05:56:45;98140.66;;;10.24;100.00
5595;BME280;1003;48.002;7.788;2023-03-26T05:59:13;98137.44;;;10.18;100.00
5595;BME280;1003;48.002;7.788;2023-03-26T06:01:40;98129.28;;;10.10;100.00
5595;BME280;1003;48.002;7.788;2023-03-26T06:04:11;98132.69;;;10.07;100.00
5595;BME280;1003;48.002;7.788;2023-03-26T06:06:39;98144.44;;;10.07;100.00
5595;BME280;1003;48.002;7.788;2023-03-26T06:09:07;98138.22;;;10.20;100.00
5595;BME280;1003;48.002;7.788;2023-03-26T06:11:34;98127.34;;;10.19;100.00
5595;BME280;1003;48.002;7.788;2023-03-26T06:14:01;98118.19;;;10.17;100.00
5595;BME280;1003;48.002;7.788;2023-03-26T06:16:28;98116.56;;;10.16;100.00
5595;BME280;1003;48.002;7.788;2023-03-26T06:18:56;98121.63;;;10.14;100.00
5595;BME280;1003;48.002;7.788;2023-03-26T06:21:23;98137.41;;;10.19;100.00
5595;BME280;1003;48.002;7.788;2023-03-26T06:23:52;98149.03;;;10.22;100.00
5595;BME280;1003;48.002;7.788;2023-03-26T06:26:21;98160.41;;;10.37;100.00
5595;BME280;1003;48.002;7.788;2023-03-26T06:28:48;98153.91;;;10.30;100.00
5595;BME280;1003;48.002;7.788;2023-03-26T06:31:15;98174.44;;;10.45;100.00
5595;BME280;1003;48.002;7.788;2023-03-26T06:33:43;98171.06;;;10.46;100.00
5595;BME280;1003;48.002;7.788;2023-03-26T06:36:11;98176.19;;;10.42;100.00
5595;BME280;1003;48.002;7.788;2023-03-26T06:38:38;98184.59;;;10.41;100.00
5595;BME280;1003;48.002;7.788;2023-03-26T06:41:07;98185.69;;;10.31;100.00
5595;BME280;1003;48.002;7.788;2023-03-26T06:43:34;98200.75;;;10.31;100.00
5595;BME280;1003;48.002;7.788;2023-03-26T06:46:02;98217.91;;;10.13;100.00
5595;BME280;1003;48.002;7.788;2023-03-26T06:48:30;98241.22;;;10.18;100.00
5595;BME280;1003;48.002;7.788;2023-03-26T06:50:57;98241.94;;;10.22;100.00
5595;BME280;1003;48.002;7.788;2023-03-26T06:53:24;98252.84;;;10.22;100.00
5595;BME280;1003;48.002;7.788;2023-03-26T06:55:51;98266.31;;;10.18;100.00
5595;BME280;1003;48.002;7.788;2023-03-26T06:58:20;98273.19;;;10.10;100.00
5595;BME280;1003;48.002;7.788;2023-03-26T07:00:51;98303.16;;;10.18;100.00
5595;BME280;1003;48.002;7.788;2023-03-26T07:03:19;98328.19;;;10.22;100.00
5595;BME280;1003;48.002;7.788;2023-03-26T07:05:46;98345.03;;;10.17;100.00
5595;BME280;1003;48.002;7.788;2023-03-26T07:08:14;98359.19;;;10.20;100.00
5595;BME280;1003;48.002;7.788;2023-03-26T07:10:41;98357.47;;;10.23;100.00
5595;BME280;1003;48.002;7.788;2023-03-26T07:13:08;98370.00;;;10.25;100.00
5595;BME280;1003;48.002;7.788;2023-03-26T07:15:37;98357.28;;;10.31;100.00
5595;BME280;1003;48.002;7.788;2023-03-26T07:18:04;98350.44;;;10.39;100.00
5595;BME280;1003;48.002;7.788;2023-03-26T07:20:32;98359.56;;;10.42;100.00
5595;BME280;1003;48.002;7.788;2023-03-26T07:23:03;98352.84;;;10.44;100.00
5595;BME280;1003;48.002;7.788;2023-03-26T07:25:32;98346.91;;;10.46;100.00
5595;BME280;1003;48.002;7.788;2023-03-26T07:28:10;98347.69;;;10.48;100.00
5595;BME280;1003;48.002;7.788;2023-03-26T07:30:52;98339.84;;;10.62;100.00
5595;BME280;1003;48.002;7.788;2023-03-26T07:33:33;98325.44;;;10.69;100.00
5595;BME280;1003;48.002;7.788;2023-03-26T07:36:16;98315.22;;;10.76;100.00
5595;BME280;1003;48.002;7.788;2023-03-26T07:39:03;98301.16;;;10.68;100.00
5595;BME280;1003;48.002;7.788;2023-03-26T07:41:44;98304.00;;;10.54;100.00
5595;BME280;1003;48.002;7.788;2023-03-26T07:44:35;98327.72;;;10.42;100.00
5595;BME280;1003;48.002;7.788;2023-03-26T07:47:21;98365.50;;;10.39;100.00
5595;BME280;1003;48.002;7.788;2023-03-26T07:49:52;98407.34;;;10.40;100.00
5595;BME280;1003;48.002;7.788;2023-03-26T07:52:21;98440.13;;;10.33;100.00
5595;BME280;1003;48.002;7.788;2023-03-26T07:54:49;98475.47;;;10.25;100.00
5595;BME280;1003;48.002;7.788;2023-03-26T07:57:31;98491.44;;;10.19;100.00
5595;BME280;1003;48.002;7.788;2023-03-26T08:00:10;98505.78;;;10.14;100.00
5595;BME280;1003;48.002;7.788;2023-03-26T08:03:09;98537.88;;;9.98;100.00
5595;BME280;1003;48.002;7.788;2023-03-26T08:05:51;98548.81;;;9.94;100.00
5595;BME280;1003;48.002;7.788;2023-03-26T08:08:33;98551.44;;;9.88;100.00
5595;BME280;1003;48.002;7.788;2023-03-26T08:11:19;98561.50;;;9.87;100.00
5595;BME280;1003;48.002;7.788;2023-03-26T08:14:10;98551.97;;;10.06;100.00
5595;BME280;1003;48.002;7.788;2023-03-26T08:16:50;98564.22;;;10.22;100.00
5595;BME280;1003;48.002;7.788;2023-03-26T08:19:53;98568.38;;;10.68;100.00
5595;BME280;1003;48.002;7.788;2023-03-26T08:22:30;98578.94;;;10.84;100.00
5595;BME280;1003;48.002;7.788;2023-03-26T08:25:21;98592.94;;;10.96;100.00
5595;BME280;1003;48.002;7.788;2023-03-26T08:28:03;98588.03;;;11.30;100.00
5595;BME280;1003;48.002;7.788;2023-03-26T08:30:33;98585.13;;;11.45;100.00
5595;BME280;1003;48.002;7.788;2023-03-26T08:33:12;98597.69;;;11.82;100.00
5595;BME280;1003;48.002;7.788;2023-03-26T08:35:43;98589.59;;;12.05;100.00
5595;BME280;1003;48.002;7.788;2023-03-26T08:38:13;98592.38;;;12.26;100.00
5595;BME280;1003;48.002;7.788;2023-03-26T08:41:34;98592.22;;;12.33;100.00
5595;BME280;1003;48.002;7.788;2023-03-26T08:44:53;98587.28;;;12.60;100.00
5595;BME280;1003;48.002;7.788;2023-03-26T08:48:30;98547.28;;;12.48;100.00
5595;BME280;1003;48.002;7.788;2023-03-26T08:51:31;98508.38;;;12.56;100.00
5595;BME280;1003;48.002;7.788;2023-03-26T08:55:02;98483.13;;;12.58;100.00
5595;BME280;1003;48.002;7.788;2023-03-26T08:58:04;98457.47;;;12.73;100.00
5595;BME280;1003;48.002;7.788;2023-03-26T09:00:57;98427.91;;;12.78;100.00
5595;BME280;1003;48.002;7.788;2023-03-26T09:04:02;98404.72;;;12.94;100.00
5595;BME280;1003;48.002;7.788;2023-03-26T09:07:26;98391.03;;;13.01;100.00
5595;BME280;1003;48.002;7.788;2023-03-26T09:10:34;98367.25;;;13.08;100.00
5595;BME280;1003;48.002;7.788;2023-03-26T09:13:33;98346.66;;;13.20;100.00
5595;BME280;1003;48.002;7.788;2023-03-26T09:16:49;98346.50;;;13.50;100.00
5595;BME280;1003;48.002;7.788;2023-03-26T09:23:34;98304.34;;;14.19;100.00
5595;BME280;1003;48.002;7.788;2023-03-26T09:26:25;98256.03;;;14.27;100.00
5595;BME280;1003;48.002;7.788;2023-03-26T09:29:33;98243.53;;;14.85;100.00
5595;BME280;1003;48.002;7.788;2023-03-26T09:32:42;98199.41;;;15.30;100.00
5595;BME280;1003;48.002;7.788;2023-03-26T09:35:49;98147.16;;;15.29;100.00
5595;BME280;1003;48.002;7.788;2023-03-26T09:38:41;98104.28;;;15.43;100.00
5595;BME280;1003;48.002;7.788;2023-03-26T09:41:15;98106.63;;;15.65;100.00
5595;BME280;1003;48.002;7.788;2023-03-26T09:44:27;98070.88;;;15.71;100.00
5595;BME280;1003;48.002;7.788;2023-03-26T09:47:22;98031.69;;;15.61;100.00
5595;BME280;1003;48.002;7.788;2023-03-26T09:50:19;97996.31;;;16.10;100.00
5595;BME280;1003;48.002;7.788;2023-03-26T09:53:09;97976.38;;;15.86;100.00
5595;BME280;1003;48.002;7.788;2023-03-26T09:55:53;97954.06;;;16.26;100.00
5595;BME280;1003;48.002;7.788;2023-03-26T09:58:41;97943.31;;;16.05;100.00
5595;BME280;1003;48.002;7.788;2023-03-26T10:01:23;97938.28;;;15.72;100.00
5595;BME280;1003;48.002;7.788;2023-03-26T10:06:59;97928.31;;;14.82;100.00
5595;BME280;1003;48.002;7.788;2023-03-26T10:09:45;97927.91;;;14.55;100.00
5595;BME280;1003;48.002;7.788;2023-03-26T10:12:29;97929.31;;;14.61;100.00
5595;BME280;1003;48.002;7.788;2023-03-26T10:15:15;97923.16;;;14.66;100.00
5595;BME280;1003;48.002;7.788;2023-03-26T10:17:58;97928.91;;;14.51;100.00
5595;BME280;1003;48.002;7.788;2023-03-26T10:20:52;97923.47;;;14.23;100.00
5595;BME280;1003;48.002;7.788;2023-03-26T10:23:42;97927.53;;;14.25;100.00
5595;BME280;1003;48.002;7.788;2023-03-26T10:26:40;97922.47;;;14.44;100.00
5595;BME280;1003;48.002;7.788;2023-03-26T10:32:29;97925.66;;;14.11;100.00
5595;BME280;1003;48.002;7.788;2023-03-26T10:35:11;97924.88;;;14.28;100.00
5595;BME280;1003;48.002;7.788;2023-03-26T10:38:00;97932.03;;;14.92;100.00
5595;BME280;1003;48.002;7.788;2023-03-26T10:40:36;97906.69;;;15.62;100.00
5595;BME280;1003;48.002;7.788;2023-03-26T10:43:42;97891.19;;;15.68;100.00
5595;BME280;1003;48.002;7.788;2023-03-26T10:46:50;97886.53;;;15.76;100.00
5595;BME280;1003;48.002;7.788;2023-03-26T10:49:55;97890.44;;;15.99;100.00
5595;BME280;1003;48.002;7.788;2023-03-26T10:52:35;97874.81;;;15.58;100.00
5595;BME280;1003;48.002;7.788;2023-03-26T10:55:13;97870.47;;;15.77;100.00
5595;BME280;1003;48.002;7.788;2023-03-26T10:57:47;97864.22;;;16.30;100.00
5595;BME280;1003;48.002;7.788;2023-03-26T11:00:22;97870.81;;;16.64;100.00
5595;BME280;1003;48.002;7.788;2023-03-26T11:06:26;97848.53;;;16.39;100.00
5595;BME280;1003;48.002;7.788;2023-03-26T11:09:09;97844.88;;;16.75;100.00
5595;BME280;1003;48.002;7.788;2023-03-26T11:11:47;97843.59;;;17.12;100.00
5595;BME280;1003;48.002;7.788;2023-03-26T11:14:23;97844.72;;;16.92;100.00
5595;BME280;1003;48.002;7.788;2023-03-26T11:17:01;97837.63;;;16.83;100.00
5595;BME280;1003;48.002;7.788;2023-03-26T11:19:38;97829.06;;;16.70;100.00
5595;BME280;1003;48.002;7.788;2023-03-26T11:22:23;97834.59;;;16.46;96.06
5595;BME280;1003;48.002;7.788;2023-03-26T11:25:21;97835.81;;;15.93;91.82
5595;BME280;1003;48.002;7.788;2023-03-26T11:28:07;97827.63;;;15.72;91.16
5595;BME280;1003;48.002;7.788;2023-03-26T11:30:50;97844.41;;;15.58;88.30
5595;BME280;1003;48.002;7.788;2023-03-26T11:33:23;97826.69;;;15.58;87.21
5595;BME280;1003;48.002;7.788;2023-03-26T11:35:58;97829.63;;;15.50;87.31
5595;BME280;1003;48.002;7.788;2023-03-26T11:38:33;97828.72;;;15.51;91.50
5595;BME280;1003;48.002;7.788;2023-03-26T11:41:11;97837.47;;;15.45;91.95
5595;BME280;1003;48.002;7.788;2023-03-26T11:43:39;97860.00;;;15.67;92.53
5595;BME280;1003;48.002;7.788;2023-03-26T11:46:11;97853.28;;;15.49;91.16
5595;BME280;1003;48.002;7.788;2023-03-26T11:48:45;97853.47;;;15.46;94.67
5595;BME280;1003;48.002;7.788;2023-03-26T11:51:21;97857.69;;;15.30;94.17
5595;BME280;1003;48.002;7.788;2023-03-26T11:53:50;97851.84;;;15.28;96.81
5595;BME280;1003;48.002;7.788;2023-03-26T11:56:27;97885.47;;;14.96;98.73
5595;BME280;1003;48.002;7.788;2023-03-26T11:59:00;97866.84;;;14.63;100.00
5595;BME280;1003;48.002;7.788;2023-03-26T12:01:42;97867.50;;;14.30;100.00
5595;BME280;1003;48.002;7.788;2023-03-26T12:04:16;97857.97;;;14.18;100.00
5595;BME280;1003;48.002;7.788;2023-03-26T12:06:53;97845.97;;;13.48;100.00
5595;BME280;1003;48.002;7.788;2023-03-26T12:09:24;97840.50;;;13.57;100.00
5595;BME280;1003;48.002;7.788;2023-03-26T12:11:58;97834.69;;;13.36;100.00
5595;BME280;1003;48.002;7.788;2023-03-26T12:14:29;97826.16;;;13.18;100.00
5595;BME280;1003;48.002;7.788;2023-03-26T12:17:05;97821.63;;;13.06;100.00
5595;BME280;1003;48.002;7.788;2023-03-26T12:19:39;97808.63;;;13.15;100.00
5595;BME280;1003;48.002;7.788;2023-03-26T12:22:28;97811.47;;;13.28;100.00
5595;BME280;1003;48.002;7.788;2023-03-26T12:25:15;97804.34;;;13.37;100.00
5595;BME280;1003;48.002;7.788;2023-03-26T12:27:47;97810.75;;;13.45;100.00
5595;BME280;1003;48.002;7.788;2023-03-26T12:30:21;97811.75;;;13.22;100.00
5595;BME280;1003;48.002;7.788;2023-03-26T12:32:51;97797.97;;;13.29;100.00
5595;BME280;1003;48.002;7.788;2023-03-26T12:35:25;97798.31;;;13.01;100.00
5595;BME280;1003;48.002;7.788;2023-03-26T12:37:55;97787.34;;;12.61;100.00
5595;BME280;1003;48.002;7.788;2023-03-26T12:40:41;97786.59;;;12.39;100.00
5595;BME280;1003;48.002;7.788;2023-03-26T12:43:22;97788.28;;;12.38;100.00
5595;BME280;1003;48.002;7.788;2023-03-26T12:45:55;97784.50;;;12.48;100.00
5595;BME280;1003;48.002;7.788;2023-03-26T12:48:24;97788.09;;;12.63;100.00
5595;BME280;1003;48.002;7.788;2023-03-26T12:51:05;97786.22;;;12.88;100.00
5595;BME280;1003;48.002;7.788;2023-03-26T12:53:54;97774.03;;;12.98;100.00
5595;BME280;1003;48.002;7.788;2023-03-26T12:56:32;97777.75;;;13.10;100.00
5595;BME280;1003;48.002;7.788;2023-03-26T12:59:25;97773.97;;;13.00;100.00
5595;BME280;1003;48.002;7.788;2023-03-26T13:02:18;97778.22;;;13.18;100.00
5595;BME280;1003;48.002;7.788;2023-03-26T13:05:19;97765.25;;;13.65;100.00
5595;BME280;1003;48.002;7.788;2023-03-26T13:08:03;97758.91;;;13.75;100.00
5595;BME280;1003;48.002;7.788;2023-03-26T13:10:53;97758.47;;;13.84;100.00
5595;BME280;1003;48.002;7.788;2023-03-26T13:16:54;97749.31;;;14.01;100.00
5595;BME280;1003;48.002;7.788;2023-03-26T13:19:33;97745.53;;;14.27;100.00
5595;BME280;1003;48.002;7.788;2023-03-26T13:22:19;97737.78;;;14.82;100.00
5595;BME280;1003;48.002;7.788;2023-03-26T13:24:56;97747.00;;;15.16;100.00
5595;BME280;1003;48.002;7.788;2023-03-26T13:27:40;97735.94;;;15.01;100.00
5595;BME280;1003;48.002;7.788;2023-03-26T13:30:24;97735.00;;;14.70;100.00
5595;BME280;1003;48.002;7.788;2023-03-26T13:33:33;97738.59;;;14.82;100.00
5595;BME280;1003;48.002;7.788;2023-03-26T13:36:23;97730.28;;;14.80;100.00
5595;BME280;1003;48.002;7.788;2023-03-26T13:39:12;97716.34;;;14.56;100.00
5595;BME280;1003;48.002;7.788;2023-03-26T13:42:05;97698.31;;;14.62;100.00
5595;BME280;1003;48.002;7.788;2023-03-26T13:44:49;97678.13;;;14.27;100.00
5595;BME280;1003;48.002;7.788;2023-03-26T13:47:27;97660.63;;;13.88;100.00
5595;BME280;1003;48.002;7.788;2023-03-26T13:50:00;97684.56;;;13.45;100.00
5595;BME280;1003;48.002;7.788;2023-03-26T13:52:37;97719.72;;;13.10;100.00
5595;BME280;1003;48.002;7.788;2023-03-26T13:58:52;97820.06;;;11.03;100.00
5595;BME280;1003;48.002;7.788;2023-03-26T14:01:29;97836.38;;;10.38;100.00
5595;BME280;1003;48.002;7.788;2023-03-26T14:04:12;97872.56;;;9.73;100.00
5595;BME280;1003;48.002;7.788;2023-03-26T14:06:47;97906.72;;;9.48;100.00
5595;BME280;1003;48.002;7.788;2023-03-26T14:09:27;97986.47;;;9.34;100.00
5595;BME280;1003;48.002;7.788;2023-03-26T14:15:02;98109.00;;;9.12;100.00
5595;BME280;1003;48.002;7.788;2023-03-26T14:17:36;98138.88;;;9.21;100.00
5595;BME280;1003;48.002;7.788;2023-03-26T14:20:50;98147.47;;;9.84;100.00
5595;BME280;1003;48.002;7.788;2023-03-26T14:23:56;98136.19;;;10.36;100.00
5595;BME280;1003;48.002;7.788;2023-03-26T14:26:52;98129.53;;;10.64;100.00
5595;BME280;1003;48.002;7.788;2023-03-26T14:29:40;98112.41;;;10.78;100.00